Time;durP1;ratioP1;P1;durP2;ratioP2;P2;SDS_P1;SDS_P2;PMS_P1;PMS_P2;Temp;Humidity;BMP_temperature;BMP_pressure;BME280_temperature;BME280_humidity;BME280_pressure;Samples;Min_cycle;Max_cycle;Signal;HPM_P1;HPM_P2
2022/05/20 00:00:51;;;;;;;;;;;19.40;99.90;;;;;;5083770;28;20281;-74
2022/05/20 00:03:23;;;;;;;;;;;19.40;99.90;;;;;;5083667;28;19931;-74
2022/05/20 00:05:55;;;;;;;;;;;19.30;99.90;;;;;;5102152;28;19931;-74
2022/05/20 00:08:27;;;;;;;;;;;19.40;99.90;;;;;;5055918;28;19935;-74
2022/05/20 00:10:59;;;;;;;;;;;19.40;99.90;;;;;;5084868;28;19925;-74
2022/05/20 00:13:27;;;;;;;;;;;19.40;99.90;;;;;;5054273;28;19924;-74
2022/05/20 00:15:59;;;;;;;;;;;19.30;99.90;;;;;;5068939;28;20400;-74
2022/05/20 00:18:30;;;;;;;;;;;19.30;99.90;;;;;;5072890;28;19950;-74
2022/05/20 00:20:59;;;;;;;;;;;19.30;99.90;;;;;;5097245;28;19924;-73
2022/05/20 00:23:31;;;;;;;;;;;19.30;99.90;;;;;;5060523;28;19933;-74
2022/05/20 00:26:03;;;;;;;;;;;19.30;99.90;;;;;;5082127;28;19950;-74
2022/05/20 00:28:34;;;;;;;;;;;19.30;99.90;;;;;;5108235;28;19924;-74
2022/05/20 00:31:08;;;;;;;;;;;19.30;99.90;;;;;;5088176;28;20393;-73
2022/05/20 00:33:35;;;;;;;;;;;19.30;99.90;;;;;;5072449;28;19931;-74
2022/05/20 00:36:02;;;;;;;;;;;19.30;99.90;;;;;;5081708;28;19924;-74
2022/05/20 00:38:34;;;;;;;;;;;19.30;99.90;;;;;;5075544;28;20304;-74
2022/05/20 00:41:07;;;;;;;;;;;19.20;99.90;;;;;;5080162;28;19924;-74
2022/05/20 00:43:40;;;;;;;;;;;19.20;99.90;;;;;;5057747;28;20688;-74
2022/05/20 00:46:13;;;;;;;;;;;19.20;99.90;;;;;;5095972;28;19924;-73
2022/05/20 00:48:46;;;;;;;;;;;19.10;99.90;;;;;;5071505;28;19927;-74
2022/05/20 00:51:19;;;;;;;;;;;19.10;99.90;;;;;;5089349;28;19931;-74
2022/05/20 00:53:56;;;;;;;;;;;19.10;99.90;;;;;;5056658;28;19933;-74
2022/05/20 00:56:34;;;;;;;;;;;19.10;99.90;;;;;;5098066;28;19970;-74
2022/05/20 00:59:01;;;;;;;;;;;19.00;99.90;;;;;;5103898;28;19934;-74
2022/05/20 01:01:34;;;;;;;;;;;19.00;99.90;;;;;;5061192;28;19929;-74
2022/05/20 01:04:01;;;;;;;;;;;18.90;99.90;;;;;;5040504;28;19935;-74
2022/05/20 01:06:28;;;;;;;;;;;18.90;99.90;;;;;;5065170;28;19935;-73
2022/05/20 01:08:59;;;;;;;;;;;18.90;99.90;;;;;;5089339;28;20026;-74
2022/05/20 01:11:31;;;;;;;;;;;18.80;99.90;;;;;;5071044;28;20029;-74
2022/05/20 01:13:58;;;;;;;;;;;18.80;99.90;;;;;;5068980;28;19947;-74
2022/05/20 01:16:24;;;;;;;;;;;18.70;99.90;;;;;;5085458;28;19939;-73
2022/05/20 01:18:57;;;;;;;;;;;18.70;99.90;;;;;;5089545;28;19925;-74
2022/05/20 01:21:28;;;;;;;;;;;18.70;99.90;;;;;;5063224;28;19924;-74
2022/05/20 01:24:01;;;;;;;;;;;18.70;99.90;;;;;;5088632;28;20404;-73
2022/05/20 01:26:27;;;;;;;;;;;18.80;99.90;;;;;;5064692;28;19981;-73
2022/05/20 01:28:59;;;;;;;;;;;18.80;99.90;;;;;;5098817;28;20533;-73
2022/05/20 01:31:31;;;;;;;;;;;18.80;99.90;;;;;;5075126;28;19928;-74
2022/05/20 01:34:02;;;;;;;;;;;18.80;99.90;;;;;;5063373;28;20389;-74
2022/05/20 01:36:34;;;;;;;;;;;18.80;99.90;;;;;;5079781;28;19931;-74
2022/05/20 01:39:06;;;;;;;;;;;18.80;99.90;;;;;;5083666;28;19924;-74
2022/05/20 01:41:46;;;;;;;;;;;18.80;99.90;;;;;;5086839;28;19924;-74
2022/05/20 01:44:20;;;;;;;;;;;18.80;99.90;;;;;;5075213;28;19947;-73
2022/05/20 01:46:59;;;;;;;;;;;18.70;99.90;;;;;;5091974;28;19935;-74
2022/05/20 01:49:34;;;;;;;;;;;18.70;99.90;;;;;;5089436;28;20387;-73
2022/05/20 01:52:10;;;;;;;;;;;18.70;99.90;;;;;;5081253;28;19987;-74
2022/05/20 01:54:52;;;;;;;;;;;18.60;99.90;;;;;;5065205;28;19929;-73
2022/05/20 01:57:28;;;;;;;;;;;18.60;99.90;;;;;;5082711;28;19928;-73
2022/05/20 02:00:04;;;;;;;;;;;18.60;99.90;;;;;;5061497;28;20474;-73
2022/05/20 02:02:56;;;;;;;;;;;18.60;99.90;;;;;;5061876;28;20407;-73
2022/05/20 02:05:30;;;;;;;;;;;18.60;99.90;;;;;;5073649;28;19935;-73
2022/05/20 02:08:01;;;;;;;;;;;18.50;99.90;;;;;;5060369;28;19924;-73
2022/05/20 02:10:36;;;;;;;;;;;18.50;99.90;;;;;;5097469;28;19928;-73
2022/05/20 02:13:09;;;;;;;;;;;18.50;99.90;;;;;;5051873;28;19924;-73
2022/05/20 02:15:41;;;;;;;;;;;18.60;99.90;;;;;;5079977;28;19929;-73
2022/05/20 02:18:11;;;;;;;;;;;18.50;99.90;;;;;;5056580;28;20313;-73
2022/05/20 02:20:45;;;;;;;;;;;18.50;99.90;;;;;;5059219;28;19931;-73
2022/05/20 02:23:31;;;;;;;;;;;18.50;99.90;;;;;;5084130;28;20629;-73
2022/05/20 02:26:12;;;;;;;;;;;18.50;99.90;;;;;;5084914;28;19924;-73
2022/05/20 02:28:45;;;;;;;;;;;18.50;99.90;;;;;;5080540;28;19956;-72
2022/05/20 02:31:19;;;;;;;;;;;18.50;99.90;;;;;;5072203;28;19930;-75
2022/05/20 02:33:46;;;;;;;;;;;18.50;99.90;;;;;;5076576;28;20332;-73
2022/05/20 02:36:21;;;;;;;;;;;18.40;99.90;;;;;;5072908;28;19935;-73
2022/05/20 02:38:53;;;;;;;;;;;18.30;99.90;;;;;;5086719;28;19928;-73
2022/05/20 02:41:25;;;;;;;;;;;18.30;99.90;;;;;;5088735;28;20400;-73
2022/05/20 02:43:51;;;;;;;;;;;18.20;99.90;;;;;;5046066;28;19985;-73
2022/05/20 02:46:23;;;;;;;;;;;18.20;99.90;;;;;;5086736;28;19935;-73
2022/05/20 02:48:54;;;;;;;;;;;18.20;99.90;;;;;;5071727;28;19931;-73
2022/05/20 02:51:26;;;;;;;;;;;18.20;99.90;;;;;;5098560;28;20488;-73
2022/05/20 02:53:58;;;;;;;;;;;18.20;99.90;;;;;;5102942;28;19935;-73
2022/05/20 02:56:30;;;;;;;;;;;18.20;99.90;;;;;;5081672;28;20300;-73
2022/05/20 03:04:40;;;;;;;;;;;18.10;99.90;;;;;;5084283;28;19925;-73
2022/05/20 03:07:13;;;;;;;;;;;18.10;99.90;;;;;;5087348;28;19939;-72
2022/05/20 03:09:45;;;;;;;;;;;18.10;99.90;;;;;;5084961;28;19925;-73
2022/05/20 03:12:13;;;;;;;;;;;18.00;99.90;;;;;;5062755;28;19974;-73
2022/05/20 03:14:44;;;;;;;;;;;18.00;99.90;;;;;;5098172;28;19931;-73
2022/05/20 03:17:16;;;;;;;;;;;17.90;99.90;;;;;;5068918;28;19928;-73
2022/05/20 03:19:48;;;;;;;;;;;17.90;99.90;;;;;;5096592;28;20019;-73
2022/05/20 03:22:19;;;;;;;;;;;17.90;99.90;;;;;;5093113;28;19930;-73
2022/05/20 03:24:46;;;;;;;;;;;17.90;99.90;;;;;;5068490;28;19928;-75
2022/05/20 03:27:17;;;;;;;;;;;17.80;99.90;;;;;;5081664;28;19924;-73
2022/05/20 03:29:44;;;;;;;;;;;17.70;99.90;;;;;;5097943;28;19924;-73
2022/05/20 03:32:16;;;;;;;;;;;17.70;99.90;;;;;;5084563;28;20369;-73
2022/05/20 03:34:48;;;;;;;;;;;17.60;99.90;;;;;;5068017;28;19931;-73
2022/05/20 03:37:19;;;;;;;;;;;17.70;99.90;;;;;;5084867;28;19932;-73
2022/05/20 03:39:46;;;;;;;;;;;17.60;99.90;;;;;;5093671;28;19948;-73
2022/05/20 03:42:18;;;;;;;;;;;17.60;99.90;;;;;;5082326;28;20385;-73
2022/05/20 03:44:51;;;;;;;;;;;17.60;99.90;;;;;;5063445;28;19928;-73
2022/05/20 03:47:22;;;;;;;;;;;17.60;99.90;;;;;;5070494;28;19924;-73
2022/05/20 03:49:54;;;;;;;;;;;17.60;99.90;;;;;;5065939;28;19932;-73
2022/05/20 03:52:25;;;;;;;;;;;17.60;99.90;;;;;;5075939;28;20304;-73
2022/05/20 03:54:58;;;;;;;;;;;17.60;99.90;;;;;;5068747;28;19932;-73
2022/05/20 03:57:30;;;;;;;;;;;17.50;99.90;;;;;;5082681;28;19928;-73
2022/05/20 04:00:02;;;;;;;;;;;17.60;99.90;;;;;;5065734;28;19932;-73
2022/05/20 04:02:39;;;;;;;;;;;17.50;99.90;;;;;;5060721;28;19931;-73
2022/05/20 04:05:06;;;;;;;;;;;17.60;99.90;;;;;;5049252;28;19928;-73
2022/05/20 04:07:41;;;;;;;;;;;17.60;99.90;;;;;;5068299;28;19924;-73
2022/05/20 04:10:12;;;;;;;;;;;17.60;99.90;;;;;;5083888;28;20286;-73
2022/05/20 04:12:41;;;;;;;;;;;17.60;99.90;;;;;;5078719;28;20050;-73
2022/05/20 04:15:14;;;;;;;;;;;17.60;99.90;;;;;;5078830;28;19928;-72
2022/05/20 04:17:45;;;;;;;;;;;17.60;99.90;;;;;;5056357;28;19924;-76
2022/05/20 04:20:12;;;;;;;;;;;17.60;99.90;;;;;;5077681;28;19929;-73
2022/05/20 04:22:45;;;;;;;;;;;17.60;99.90;;;;;;5060773;28;19935;-72
2022/05/20 04:25:16;;;;;;;;;;;17.60;99.90;;;;;;5080636;28;20419;-76
2022/05/20 04:27:43;;;;;;;;;;;17.50;99.90;;;;;;5083133;28;19963;-73
2022/05/20 04:30:14;;;;;;;;;;;17.40;99.90;;;;;;5066204;28;19925;-73
2022/05/20 04:32:46;;;;;;;;;;;17.40;99.90;;;;;;5080298;28;19932;-73
2022/05/20 04:35:17;;;;;;;;;;;17.40;99.90;;;;;;5093914;28;19935;-73
2022/05/20 04:37:49;;;;;;;;;;;17.40;99.90;;;;;;5086044;28;19934;-73
2022/05/20 04:40:16;;;;;;;;;;;17.40;99.90;;;;;;5080075;28;20345;-73
2022/05/20 04:48:23;;;;;;;;;;;17.50;99.90;;;;;;5083528;28;19951;-73
2022/05/20 04:50:50;;;;;;;;;;;17.50;99.90;;;;;;5080312;28;20026;-73
2022/05/20 04:56:07;;;;;;;;;;;17.60;99.90;;;;;;5077181;28;20050;-73
2022/05/20 04:58:39;;;;;;;;;;;17.60;99.90;;;;;;5075817;28;20389;-73
2022/05/20 05:01:05;;;;;;;;;;;17.60;99.90;;;;;;5088868;28;20393;-73
2022/05/20 05:03:37;;;;;;;;;;;17.60;99.90;;;;;;5061273;28;20579;-73
2022/05/20 05:06:08;;;;;;;;;;;17.60;99.90;;;;;;5082272;28;19932;-72
2022/05/20 05:08:40;;;;;;;;;;;17.60;99.90;;;;;;5083189;28;19932;-73
2022/05/20 05:11:06;;;;;;;;;;;17.70;99.90;;;;;;5059887;28;19928;-73
2022/05/20 05:13:38;;;;;;;;;;;17.70;99.90;;;;;;5078993;28;19959;-73
2022/05/20 05:16:06;;;;;;;;;;;17.70;99.90;;;;;;5084487;28;19928;-73
2022/05/20 05:18:37;;;;;;;;;;;17.60;99.90;;;;;;5083072;28;20404;-73
2022/05/20 05:21:12;;;;;;;;;;;17.60;99.90;;;;;;5066108;28;19932;-73
2022/05/20 05:23:44;;;;;;;;;;;17.70;99.90;;;;;;5079037;28;20606;-73
2022/05/20 05:26:16;;;;;;;;;;;17.70;99.90;;;;;;5044077;28;19946;-73
2022/05/20 05:28:47;;;;;;;;;;;17.80;99.90;;;;;;5083090;28;19924;-73
2022/05/20 05:31:14;;;;;;;;;;;17.80;99.90;;;;;;5063516;28;19960;-73
2022/05/20 05:33:45;;;;;;;;;;;17.80;99.90;;;;;;5084360;28;19927;-73
2022/05/20 05:36:18;;;;;;;;;;;17.80;99.90;;;;;;5068659;28;20372;-73
2022/05/20 05:38:49;;;;;;;;;;;17.80;99.90;;;;;;5093849;28;20372;-73
2022/05/20 05:41:21;;;;;;;;;;;17.80;99.90;;;;;;5099565;28;20413;-73
2022/05/20 05:43:52;;;;;;;;;;;17.80;99.90;;;;;;5078060;28;19925;-73
2022/05/20 05:46:24;;;;;;;;;;;17.90;99.90;;;;;;5078115;28;20452;-73
2022/05/20 05:48:57;;;;;;;;;;;17.90;99.90;;;;;;5097583;28;19928;-73
2022/05/20 05:51:28;;;;;;;;;;;18.00;99.90;;;;;;5073161;28;20020;-73
2022/05/20 05:54:00;;;;;;;;;;;18.00;99.90;;;;;;5062059;28;19924;-73
2022/05/20 05:56:32;;;;;;;;;;;18.10;99.90;;;;;;5063954;28;19943;-73
2022/05/20 05:59:03;;;;;;;;;;;18.20;99.90;;;;;;5098211;28;19928;-73
2022/05/20 06:01:30;;;;;;;;;;;18.30;99.90;;;;;;5062685;28;20022;-73
2022/05/20 06:04:02;;;;;;;;;;;18.30;99.90;;;;;;5064234;28;19932;-73
2022/05/20 06:06:34;;;;;;;;;;;18.30;99.90;;;;;;5083607;28;20010;-73
2022/05/20 06:09:00;;;;;;;;;;;18.40;99.90;;;;;;5077733;28;19929;-73
2022/05/20 06:11:32;;;;;;;;;;;18.40;99.90;;;;;;5065612;28;19928;-73
2022/05/20 06:14:05;;;;;;;;;;;18.50;99.90;;;;;;5084295;28;19958;-73
2022/05/20 06:16:31;;;;;;;;;;;18.60;99.90;;;;;;5100351;28;19936;-73
2022/05/20 06:19:03;;;;;;;;;;;18.50;99.90;;;;;;5072373;28;19924;-73
2022/05/20 06:21:35;;;;;;;;;;;18.60;99.90;;;;;;5081278;28;19924;-73
2022/05/20 06:24:08;;;;;;;;;;;18.70;99.90;;;;;;5104478;28;20026;-73
2022/05/20 06:26:41;;;;;;;;;;;18.70;99.90;;;;;;5084736;28;19925;-73
2022/05/20 06:29:13;;;;;;;;;;;18.80;99.90;;;;;;5089062;28;20034;-73
2022/05/20 06:31:41;;;;;;;;;;;18.90;99.90;;;;;;5057949;28;19924;-73
2022/05/20 06:34:13;;;;;;;;;;;19.00;99.90;;;;;;5067500;28;19924;-73
2022/05/20 06:42:16;;;;;;;;;;;19.20;99.90;;;;;;5088789;28;19935;-73
2022/05/20 06:44:45;;;;;;;;;;;19.30;99.90;;;;;;5069010;28;19928;-73
2022/05/20 06:47:16;;;;;;;;;;;19.40;99.90;;;;;;5102736;28;19931;-73
2022/05/20 06:49:48;;;;;;;;;;;19.50;99.90;;;;;;5086159;28;19936;-73
2022/05/20 06:52:19;;;;;;;;;;;19.60;99.90;;;;;;5083980;28;19931;-73
2022/05/20 06:54:51;;;;;;;;;;;19.60;99.90;;;;;;5075126;28;20431;-73
2022/05/20 06:57:24;;;;;;;;;;;19.70;99.90;;;;;;5088590;28;19931;-73
2022/05/20 06:59:52;;;;;;;;;;;19.80;99.90;;;;;;5069227;28;19928;-73
2022/05/20 07:02:23;;;;;;;;;;;19.90;99.90;;;;;;5067028;28;20308;-74
2022/05/20 07:04:57;;;;;;;;;;;20.00;99.90;;;;;;5077510;28;19928;-73
2022/05/20 07:07:24;;;;;;;;;;;20.10;99.90;;;;;;5106347;28;19924;-73
2022/05/20 07:09:55;;;;;;;;;;;20.20;99.90;;;;;;5081625;28;19928;-73
2022/05/20 07:12:22;;;;;;;;;;;20.40;99.90;;;;;;5065451;28;19928;-73
2022/05/20 07:14:54;;;;;;;;;;;20.70;99.90;;;;;;5067926;28;20018;-73
2022/05/20 07:17:20;;;;;;;;;;;21.10;99.90;;;;;;5073562;28;19970;-73
2022/05/20 07:19:53;;;;;;;;;;;21.30;99.90;;;;;;5067658;28;19928;-73
2022/05/20 07:22:19;;;;;;;;;;;21.60;99.90;;;;;;5058480;28;19925;-73
2022/05/20 07:24:51;;;;;;;;;;;21.80;99.90;;;;;;5079153;28;19924;-73
2022/05/20 07:27:18;;;;;;;;;;;21.90;99.90;;;;;;5075470;28;19924;-73
2022/05/20 07:29:50;;;;;;;;;;;22.10;99.90;;;;;;5087645;28;19924;-73
2022/05/20 07:32:22;;;;;;;;;;;22.20;99.90;;;;;;5064529;28;19928;-73
2022/05/20 07:34:53;;;;;;;;;;;22.30;99.90;;;;;;5093181;28;20384;-73
2022/05/20 07:37:25;;;;;;;;;;;22.40;99.90;;;;;;5097729;28;19928;-73
2022/05/20 07:39:57;;;;;;;;;;;22.50;99.90;;;;;;5064152;28;19931;-73
2022/05/20 07:42:28;;;;;;;;;;;22.60;99.90;;;;;;5086801;28;19931;-73
2022/05/20 07:45:01;;;;;;;;;;;22.70;99.90;;;;;;5064912;28;19968;-73
2022/05/20 07:47:33;;;;;;;;;;;22.80;99.90;;;;;;5096502;28;19932;-73
2022/05/20 07:50:05;;;;;;;;;;;23.00;99.90;;;;;;5082845;28;19931;-74
2022/05/20 07:55:29;;;;;;;;;;;23.20;99.90;;;;;;5084185;28;20617;-73
2022/05/20 07:58:02;;;;;;;;;;;23.40;99.90;;;;;;5080373;28;19925;-73
2022/05/20 08:00:34;;;;;;;;;;;23.50;99.90;;;;;;5057069;28;19924;-73
2022/05/20 08:03:01;;;;;;;;;;;23.60;99.90;;;;;;5066239;28;19935;-73
2022/05/20 08:05:29;;;;;;;;;;;23.70;99.90;;;;;;5085203;28;19932;-73
2022/05/20 08:08:05;;;;;;;;;;;23.90;99.90;;;;;;5094960;28;19931;-73
2022/05/20 08:10:38;;;;;;;;;;;24.00;99.90;;;;;;5064282;28;19928;-73
2022/05/20 08:13:10;;;;;;;;;;;24.10;99.90;;;;;;5076873;28;19924;-73
2022/05/20 08:15:42;;;;;;;;;;;24.20;99.90;;;;;;5078482;28;19935;-73
2022/05/20 08:18:13;;;;;;;;;;;24.30;99.90;;;;;;5067448;28;19928;-73
2022/05/20 08:20:45;;;;;;;;;;;24.40;99.90;;;;;;5060891;28;19924;-73
2022/05/20 08:23:17;;;;;;;;;;;24.40;99.90;;;;;;5096745;28;20297;-73
2022/05/20 08:25:49;;;;;;;;;;;24.50;99.90;;;;;;5051337;28;19929;-73
2022/05/20 08:28:16;;;;;;;;;;;24.60;99.90;;;;;;5100298;28;19931;-73
2022/05/20 08:30:48;;;;;;;;;;;24.70;99.90;;;;;;5055554;28;19928;-73
2022/05/20 08:33:20;;;;;;;;;;;24.80;99.90;;;;;;5081856;28;19931;-73
2022/05/20 08:35:51;;;;;;;;;;;24.90;99.90;;;;;;5080383;28;19924;-73
2022/05/20 08:38:24;;;;;;;;;;;25.00;99.90;;;;;;5082011;28;19928;-73
2022/05/20 08:40:57;;;;;;;;;;;25.20;99.90;;;;;;5066923;28;19924;-73
2022/05/20 08:43:30;;;;;;;;;;;25.30;99.90;;;;;;5058575;28;19931;-73
2022/05/20 08:46:06;;;;;;;;;;;25.50;99.90;;;;;;5083716;28;19928;-73
2022/05/20 08:48:42;;;;;;;;;;;25.50;99.90;;;;;;5065181;28;19936;-73
2022/05/20 08:51:13;;;;;;;;;;;25.60;99.90;;;;;;5071935;28;19928;-73
2022/05/20 08:53:46;;;;;;;;;;;25.70;99.90;;;;;;5089563;28;20321;-73
2022/05/20 08:56:19;;;;;;;;;;;25.70;99.90;;;;;;5081576;28;19934;-73
2022/05/20 08:59:02;;;;;;;;;;;25.80;99.90;;;;;;5097638;28;19928;-73
2022/05/20 09:01:36;;;;;;;;;;;25.90;99.90;;;;;;5078624;28;20308;-73
2022/05/20 09:04:12;;;;;;;;;;;26.10;99.80;;;;;;5064435;28;19931;-73
2022/05/20 09:07:02;;;;;;;;;;;26.10;99.60;;;;;;5080082;28;19929;-73
2022/05/20 09:09:40;;;;;;;;;;;26.20;99.90;;;;;;5053181;28;19932;-73
2022/05/20 09:12:31;;;;;;;;;;;26.30;98.30;;;;;;5080262;28;19924;-73
2022/05/20 09:18:07;;;;;;;;;;;26.60;97.80;;;;;;5101106;28;19928;-73
2022/05/20 09:20:44;;;;;;;;;;;26.60;98.20;;;;;;5085049;28;19924;-73
2022/05/20 09:23:20;;;;;;;;;;;26.70;98.50;;;;;;5084536;28;19924;-73
2022/05/20 09:26:05;;;;;;;;;;;26.80;97.70;;;;;;5098754;28;20459;-73
2022/05/20 09:28:41;;;;;;;;;;;26.90;97.30;;;;;;5085671;28;19947;-73
2022/05/20 09:31:14;;;;;;;;;;;27.00;98.00;;;;;;5054121;28;19924;-73
2022/05/20 09:34:04;;;;;;;;;;;27.20;93.90;;;;;;5100897;28;19955;-73
2022/05/20 09:36:55;;;;;;;;;;;27.30;95.60;;;;;;5067568;28;19928;-74
2022/05/20 09:39:31;;;;;;;;;;;27.40;93.50;;;;;;5098974;28;19928;-73
2022/05/20 09:42:04;;;;;;;;;;;27.50;96.90;;;;;;5087875;28;19927;-73
2022/05/20 09:44:37;;;;;;;;;;;27.60;94.10;;;;;;5064276;28;20145;-73
2022/05/20 09:47:20;;;;;;;;;;;27.70;92.90;;;;;;5067764;28;19924;-73
2022/05/20 09:50:00;;;;;;;;;;;27.60;94.20;;;;;;5106935;28;20324;-73
2022/05/20 09:52:32;;;;;;;;;;;27.70;93.30;;;;;;5089176;28;19924;-73
2022/05/20 09:55:00;;;;;;;;;;;27.80;94.10;;;;;;5084368;28;20332;-73
2022/05/20 09:57:29;;;;;;;;;;;27.90;94.00;;;;;;5069588;28;19924;-73
2022/05/20 10:00:07;;;;;;;;;;;28.00;92.60;;;;;;5100609;28;19935;-73
2022/05/20 10:02:58;;;;;;;;;;;28.10;92.50;;;;;;5068478;28;19928;-73
2022/05/20 10:05:56;;;;;;;;;;;28.20;90.70;;;;;;5062948;28;19929;-73
2022/05/20 10:08:32;;;;;;;;;;;28.20;88.40;;;;;;5081179;28;19925;-73
2022/05/20 10:11:10;;;;;;;;;;;28.30;90.00;;;;;;5079935;28;19939;-73
2022/05/20 10:13:45;;;;;;;;;;;28.40;90.50;;;;;;5078549;28;20278;-73
2022/05/20 10:16:19;;;;;;;;;;;28.50;88.70;;;;;;5101994;28;19947;-73
2022/05/20 10:18:59;;;;;;;;;;;28.60;87.60;;;;;;5089170;28;19931;-73
2022/05/20 10:21:49;;;;;;;;;;;28.70;85.80;;;;;;5076475;28;19935;-73
2022/05/20 10:24:26;;;;;;;;;;;28.80;85.00;;;;;;5069270;28;19928;-73
2022/05/20 10:27:10;;;;;;;;;;;28.70;85.30;;;;;;5084022;28;19999;-73
2022/05/20 10:32:39;;;;;;;;;;;28.80;78.50;;;;;;5076027;28;19936;-73
2022/05/20 10:35:15;;;;;;;;;;;28.80;78.70;;;;;;5081676;28;19932;-73
2022/05/20 10:37:58;;;;;;;;;;;28.90;79.50;;;;;;5063379;28;19928;-73
2022/05/20 10:40:36;;;;;;;;;;;28.90;77.80;;;;;;5068564;28;19935;-73
2022/05/20 10:43:14;;;;;;;;;;;29.00;78.20;;;;;;5089042;28;19947;-73
2022/05/20 10:48:50;;;;;;;;;;;29.10;79.20;;;;;;5082879;28;20399;-73
2022/05/20 10:51:41;;;;;;;;;;;29.20;77.90;;;;;;5080764;28;19927;-73
2022/05/20 10:54:31;;;;;;;;;;;29.30;76.50;;;;;;5058319;28;19932;-73
2022/05/20 10:57:14;;;;;;;;;;;29.50;73.10;;;;;;5083885;28;19924;-73
2022/05/20 10:59:52;;;;;;;;;;;29.40;72.60;;;;;;5099211;27;19935;-73
2022/05/20 11:02:42;;;;;;;;;;;29.40;75.60;;;;;;5082775;28;20423;-73
2022/05/20 11:05:18;;;;;;;;;;;29.50;75.40;;;;;;5084227;28;20015;-73
2022/05/20 11:08:05;;;;;;;;;;;29.60;74.30;;;;;;5084055;28;20028;-73
2022/05/20 11:10:42;;;;;;;;;;;29.60;73.80;;;;;;5071634;28;19989;-73
2022/05/20 11:13:14;;;;;;;;;;;29.60;69.80;;;;;;5061697;28;20400;-73
2022/05/20 11:15:57;;;;;;;;;;;29.80;71.90;;;;;;5080768;28;19925;-73
2022/05/20 11:18:24;;;;;;;;;;;29.70;67.00;;;;;;5093888;28;20410;-73
2022/05/20 11:21:02;;;;;;;;;;;29.70;63.70;;;;;;5063899;28;19935;-73
2022/05/20 11:23:43;;;;;;;;;;;29.80;67.50;;;;;;5075777;28;20404;-73
2022/05/20 11:26:24;;;;;;;;;;;29.80;68.00;;;;;;5056522;28;19924;-73
2022/05/20 11:28:59;;;;;;;;;;;29.90;67.00;;;;;;5090385;28;19924;-73
2022/05/20 11:31:46;;;;;;;;;;;29.90;67.60;;;;;;5079183;28;20033;-73
2022/05/20 11:34:32;;;;;;;;;;;30.00;64.90;;;;;;5059688;28;20392;-73
2022/05/20 11:37:07;;;;;;;;;;;30.00;66.30;;;;;;5083134;28;19935;-73
2022/05/20 11:40:08;;;;;;;;;;;30.10;66.30;;;;;;5077078;28;19935;-73
2022/05/20 11:43:09;;;;;;;;;;;30.10;62.80;;;;;;5084149;28;19936;-73
2022/05/20 11:45:55;;;;;;;;;;;30.10;61.80;;;;;;5018473;28;20416;-74
2022/05/20 11:48:46;;;;;;;;;;;30.20;61.10;;;;;;5081741;28;19931;-73
2022/05/20 11:51:28;;;;;;;;;;;30.10;59.90;;;;;;5053392;28;19928;-73
2022/05/20 11:54:03;;;;;;;;;;;30.10;60.10;;;;;;5084980;28;19924;-73
2022/05/20 11:56:39;;;;;;;;;;;30.20;59.50;;;;;;5082070;28;19924;-73
2022/05/20 11:59:20;;;;;;;;;;;30.20;62.20;;;;;;5064461;28;20494;-73
2022/05/20 12:01:53;;;;;;;;;;;30.40;60.10;;;;;;5060597;28;19935;-73
2022/05/20 12:04:27;;;;;;;;;;;30.50;60.20;;;;;;5074942;28;19928;-73
2022/05/20 12:07:19;;;;;;;;;;;30.60;59.20;;;;;;5066992;28;19928;-73
2022/05/20 12:09:46;;;;;;;;;;;30.60;57.90;;;;;;5066369;28;20404;-73
2022/05/20 12:12:18;;;;;;;;;;;30.60;58.10;;;;;;5082465;28;20396;-73
2022/05/20 12:15:01;;;;;;;;;;;30.50;57.20;;;;;;5058761;28;19924;-73
2022/05/20 12:17:37;;;;;;;;;;;30.50;58.00;;;;;;5068143;28;19924;-73
2022/05/20 12:24:13;;;;;;;;;;;30.70;56.60;;;;;;5085042;28;19928;-73
2022/05/20 12:26:24;;;;;;;;;;;30.80;58.20;;;;;;5071434;28;19932;-73
2022/05/20 12:28:56;;;;;;;;;;;30.70;56.90;;;;;;5054202;28;19928;-72
2022/05/20 12:31:39;;;;;;;;;;;30.60;57.10;;;;;;5070495;28;19935;-73
2022/05/20 12:34:30;;;;;;;;;;;30.70;56.90;;;;;;5076129;28;19951;-73
2022/05/20 12:37:02;;;;;;;;;;;30.60;58.30;;;;;;5093575;28;19931;-72
2022/05/20 12:39:47;;;;;;;;;;;30.70;58.60;;;;;;5080527;28;19924;-72
2022/05/20 12:42:23;;;;;;;;;;;30.90;56.70;;;;;;5086145;28;19935;-72
2022/05/20 12:44:55;;;;;;;;;;;31.00;56.00;;;;;;5077138;28;19928;-72
2022/05/20 12:47:28;;;;;;;;;;;31.10;55.40;;;;;;5083004;28;19928;-72
2022/05/20 12:50:05;;;;;;;;;;;31.30;58.60;;;;;;5093944;28;20304;-72
2022/05/20 12:52:45;;;;;;;;;;;31.30;56.40;;;;;;5059747;28;19929;-72
2022/05/20 12:55:28;;;;;;;;;;;31.10;55.00;;;;;;5067263;28;19927;-72
2022/05/20 12:58:00;;;;;;;;;;;31.00;55.70;;;;;;5055033;28;19929;-73
2022/05/20 13:00:44;;;;;;;;;;;30.90;55.30;;;;;;5069878;28;19930;-73
2022/05/20 13:03:19;;;;;;;;;;;30.90;55.30;;;;;;5092878;28;19928;-72
2022/05/20 13:05:50;;;;;;;;;;;31.10;55.20;;;;;;5084872;28;19932;-72
2022/05/20 13:08:18;;;;;;;;;;;31.20;54.80;;;;;;5088025;28;19924;-72
2022/05/20 13:10:50;;;;;;;;;;;31.30;55.40;;;;;;5073216;28;19939;-72
2022/05/20 13:13:29;;;;;;;;;;;31.30;54.20;;;;;;5086199;28;19932;-72
2022/05/20 13:16:01;;;;;;;;;;;31.40;54.80;;;;;;5054074;28;19925;-72
2022/05/20 13:18:34;;;;;;;;;;;31.60;54.90;;;;;;5104174;28;19931;-72
2022/05/20 13:21:03;;;;;;;;;;;31.60;52.40;;;;;;5087624;28;19925;-72
2022/05/20 13:23:36;;;;;;;;;;;31.60;53.50;;;;;;5064698;28;19931;-72
2022/05/20 13:26:17;;;;;;;;;;;31.70;51.60;;;;;;5085917;28;19935;-72
2022/05/20 13:28:49;;;;;;;;;;;31.70;53.50;;;;;;5072881;28;20388;-72
2022/05/20 13:31:21;;;;;;;;;;;31.70;51.90;;;;;;5073472;28;20587;-72
2022/05/20 13:33:53;;;;;;;;;;;31.80;54.20;;;;;;5069342;28;19924;-72
2022/05/20 13:36:32;;;;;;;;;;;31.70;51.60;;;;;;5098972;28;19928;-73
2022/05/20 13:39:04;;;;;;;;;;;32.00;53.20;;;;;;5090733;28;19932;-73
2022/05/20 13:41:35;;;;;;;;;;;32.00;50.70;;;;;;5072153;28;19936;-72
2022/05/20 13:44:07;;;;;;;;;;;31.70;52.20;;;;;;5074048;28;20384;-72
2022/05/20 13:49:37;;;;;;;;;;;32.00;52.20;;;;;;5070540;28;19924;-72
2022/05/20 13:52:10;;;;;;;;;;;32.20;51.50;;;;;;5069935;28;20221;-72
2022/05/20 13:54:45;;;;;;;;;;;32.00;52.20;;;;;;5089184;28;19928;-72
2022/05/20 13:57:36;;;;;;;;;;;32.20;50.40;;;;;;5073040;28;19934;-72
2022/05/20 14:00:14;;;;;;;;;;;32.10;50.60;;;;;;5066863;28;20004;-72
2022/05/20 14:02:50;;;;;;;;;;;32.30;50.90;;;;;;5091882;28;19932;-72
2022/05/20 14:05:25;;;;;;;;;;;32.40;49.10;;;;;;5070687;28;20760;-72
2022/05/20 14:08:00;;;;;;;;;;;32.60;50.80;;;;;;5085528;28;19932;-73
2022/05/20 14:10:34;;;;;;;;;;;32.90;51.40;;;;;;5103587;28;20008;-72
2022/05/20 14:13:05;;;;;;;;;;;33.00;47.60;;;;;;5071280;28;20400;-72
2022/05/20 14:15:45;;;;;;;;;;;33.00;49.60;;;;;;5088740;28;19931;-71
2022/05/20 14:18:37;;;;;;;;;;;33.00;48.10;;;;;;5085375;28;19924;-72
2022/05/20 14:21:11;;;;;;;;;;;33.10;49.50;;;;;;5084445;28;19976;-72
2022/05/20 14:23:48;;;;;;;;;;;33.20;47.40;;;;;;5099027;28;19947;-71
2022/05/20 14:26:21;;;;;;;;;;;33.00;47.80;;;;;;5069558;28;19924;-72
2022/05/20 14:28:50;;;;;;;;;;;33.10;48.50;;;;;;5072962;28;19939;-71
2022/05/20 14:31:29;;;;;;;;;;;33.30;48.50;;;;;;5075314;28;19935;-71
2022/05/20 14:34:04;;;;;;;;;;;33.30;46.20;;;;;;5074679;28;19998;-72
2022/05/20 14:36:36;;;;;;;;;;;33.20;45.80;;;;;;5071779;28;20415;-71
2022/05/20 14:39:05;;;;;;;;;;;33.20;48.20;;;;;;5089388;28;19932;-74
2022/05/20 14:41:37;;;;;;;;;;;33.20;45.40;;;;;;5104076;28;20010;-71
2022/05/20 14:44:13;;;;;;;;;;;33.10;45.10;;;;;;5085325;28;19924;-71
2022/05/20 14:49:43;;;;;;;;;;;32.90;46.00;;;;;;5088189;28;20343;-72
2022/05/20 14:52:21;;;;;;;;;;;33.20;46.10;;;;;;5102929;28;19928;-71
2022/05/20 14:54:53;;;;;;;;;;;33.30;46.10;;;;;;5072298;28;19959;-72
2022/05/20 14:57:30;;;;;;;;;;;33.60;47.60;;;;;;5089054;28;19943;-71
2022/05/20 15:00:04;;;;;;;;;;;33.90;46.70;;;;;;5088541;28;19924;-71
2022/05/20 15:02:36;;;;;;;;;;;34.30;45.00;;;;;;5083566;28;19939;-73
2022/05/20 15:05:08;;;;;;;;;;;34.20;45.70;;;;;;5063153;28;19924;-72
2022/05/20 15:07:40;;;;;;;;;;;34.20;44.90;;;;;;5082040;28;19924;-72
2022/05/20 15:10:15;;;;;;;;;;;34.20;45.10;;;;;;5067691;28;19927;-72
2022/05/20 15:12:42;;;;;;;;;;;34.10;45.80;;;;;;5099492;28;20509;-72
2022/05/20 15:15:09;;;;;;;;;;;34.40;45.40;;;;;;5080381;28;20463;-71
2022/05/20 15:17:55;;;;;;;;;;;34.30;44.80;;;;;;5071423;28;19991;-72
2022/05/20 15:20:27;;;;;;;;;;;34.50;45.70;;;;;;5064269;28;19928;-71
2022/05/20 15:22:59;;;;;;;;;;;34.50;44.30;;;;;;5085911;28;19924;-71
2022/05/20 15:25:26;;;;;;;;;;;34.80;43.60;;;;;;5069858;28;20292;-71
2022/05/20 15:27:53;;;;;;;;;;;34.70;43.00;;;;;;5081432;28;20281;-71
2022/05/20 15:30:24;;;;;;;;;;;34.70;43.70;;;;;;5082406;28;19924;-72
2022/05/20 15:35:37;;;;;;;;;;;34.40;43.20;;;;;;5085473;28;20404;-71
2022/05/20 15:38:10;;;;;;;;;;;34.40;43.40;;;;;;5074675;28;19931;-73